Terminal Aerodrome Forecast
Issued by NWS

Home | Current Version | Previous Version | Text Only | Print | Product List | Glossary On
Versions: 1 2 3 4 5 6 7 8 9 10 11 12 13 14 15 16 17 18 19 20 21 22 23 24 25 26 27 28 29 30 31 32 33 34 35 36 37 38 39 40 41 42 43 44
000
FTPA31 PHFO 040800 AAA
TAFITO
TAF AMD
PHTO 040853Z 0409/0506 VRB05KT P6SM VCSH SCT015 BKN035 OVC070
      TEMPO 0409/0411 4SM +SHRA BR FEW008 BKN015 OVC030
     FM042000 34005KT 6SM SHRA BKN015 OVC030
     FM050300 33004KT P6SM VCSH SCT015 BKN035 OVC100=

USA.gov is the U.S. government's official web portal to all federal, state and local government web resources and services.